Saturday, May 26, 2018, 8:14 AM EDT
Back to Local

KSEG, Selinsgrove Penn Valley Airport

Location: Selinsgrove, PA, United States Lat: 40.817
Local Time: 8:14 AM EDT (12:14 GMT) Lon: -76.867
Time Zone: US/Eastern Elev: 449 ft

Show me the last for .
Show Decoded

2018-05-26 07:53 METAR KSEG 261153Z AUTO 00000KT 7SM BKN070 20/18 A2987 RMK AO2 SLP111 60000
                 T02000183 10200 20144 53009 =
2018-05-26 06:53 METAR KSEG 261053Z AUTO 18003KT 5SM BR FEW055 BKN070 OVC085 18/17 A2986 RMK AO2
                 RAB18E34 SLP108 P0000 T01830172 =
2018-05-26 05:53 METAR KSEG 260953Z AUTO 29004KT 4SM BR FEW065 16/15 A2985 RMK AO2 SLP106
                 T01560150 =
2018-05-26 04:53 METAR KSEG 260853Z AUTO 00000KT 5SM BR CLR 16/15 A2985 RMK AO2 SLP103 T01560150
                 55003 =
2018-05-26 03:53 METAR KSEG 260753Z AUTO 00000KT 5SM BR CLR 16/16 A2984 RMK AO2 SLP100 T01610156
                 =
2018-05-26 02:53 METAR KSEG 260653Z AUTO 00000KT 10SM CLR 17/16 A2985 RMK AO2 SLP103 T01720161 =
2018-05-26 01:53 METAR KSEG 260553Z AUTO 00000KT 9SM CLR 18/17 A2985 RMK AO2 SLP105 T01780167
                 10267 20172 56005 =
2018-05-26 00:53 METAR KSEG 260453Z AUTO 00000KT 10SM FEW065 FEW080 18/17 A2986 RMK AO2 SLP107
                 T01830172 403000094 =
2018-05-25 23:53 METAR KSEG 260353Z AUTO 00000KT 10SM FEW075 18/17 A2986 RMK AO2 SLP109 T01830172
                 =
2018-05-25 22:53 METAR KSEG 260253Z AUTO 00000KT 10SM FEW065 19/17 A2987 RMK AO2 SLP111 T01890172
                 51007 =
2018-05-25 21:53 METAR KSEG 260153Z AUTO 00000KT 10SM BKN080 22/18 A2986 RMK AO2 SLP110 T02170178
                 =
2018-05-25 20:53 METAR KSEG 260053Z AUTO 00000KT 10SM CLR 23/18 A2985 RMK AO2 SLP105 T02280178 =
2018-05-25 19:53 METAR KSEG 252353Z AUTO 20004KT 10SM CLR 26/18 A2985 RMK AO2 SLP104 T02610178
                 10300 20261 56009 =
2018-05-25 18:53 METAR KSEG 252253Z AUTO 21004KT 10SM CLR 28/17 A2985 RMK AO2 SLP105 T02780172 =
2018-05-25 17:53 METAR KSEG 252153Z AUTO 22007KT 10SM CLR 29/16 A2986 RMK AO2 SLP108 T02890156 =
2018-05-25 16:53 METAR KSEG 252053Z AUTO 19005KT 10SM FEW085 29/16 A2987 RMK AO2 SLP113 T02940161
                 56023 =
2018-05-25 15:53 METAR KSEG 251953Z AUTO 21004KT 10SM FEW070 29/16 A2989 RMK AO2 SLP119 T02890161
                 =
2018-05-25 14:53 METAR KSEG 251853Z AUTO VRB03KT 10SM CLR 28/16 A2992 RMK AO2 SLP129 T02780156 =
2018-05-25 13:53 METAR KSEG 251753Z AUTO 14008KT 10SM CLR 27/17 A2994 RMK AO2 SLP137 T02720172
                 10272 20156 58026 =
2018-05-25 12:53 METAR KSEG 251653Z AUTO 15008KT 10SM CLR 26/17 A2997 RMK AO2 SLP147 T02610172 =
2018-05-25 11:53 METAR KSEG 251553Z AUTO 15005KT 10SM CLR 26/16 A3000 RMK AO2 SLP154 T02560161 =
2018-05-25 10:53 METAR KSEG 251453Z AUTO 00000KT 10SM CLR 24/14 A3002 RMK AO2 SLP164 T02390139
                 58018 =
2018-05-25 09:53 METAR KSEG 251353Z AUTO 15004KT 10SM CLR 22/14 A3004 RMK AO2 SLP170 T02170144 =
2018-05-25 08:53 METAR KSEG 251253Z AUTO 00000KT 10SM CLR 19/14 A3006 RMK AO2 SLP178 T01890144 =

Support USWX by starting your Amazon purchase here.